RJTR weather

Kastner Army Heliport
Camp Zama, Tōkyō Prefecture, Japan

Public forecast

Using degrees Celsius for public forecast. Weather courtesy of forecast.io.

METAR (pilot weather report)

Report is more than 6 hours old.

Retrieved 2019/03/20 22:39 UTC (7 hours ago):

RJTR 202239Z AUTO 15006KT 7SM SCT049 OVC100 15/10 A2985 RMK AO2 RAB30E39 SLP110

TAF (pilot weather forecast)

Forecast is more than 12 hours old.

Closest forecast is Atsugi Naval Air Facility, 4.5 nm (8.3 km) SE. Retrieved 2011/10/31 12:54 UTC (7 years ago):

TAF TAF RJTA 311100Z 3112/0112 36012KT 9999 FEW030CU TEMPO 0103/0109 07008KT